Knoxville (TYS/KTYS)

Map

Destinations

Information

Location
Knoxville, TN
Local Time
07:52 / 7:52 am
GMT Time
12:52 / 12:52 pm
Gates
Unassigned
No FAA reported delays
METAR KTYS 161153Z 00000KT 1/16SM FG VV002 12/11 A3027 RMK AO2 SLP248 T01170111 10128 20117 53010 RVRNO
TAF KTYS 161127Z 1612/1712 04004KT 1/4SM FG VV002 FM161430 04004KT 4SM BR BKN006 FM161600 20005KT P6SM BKN050
  • No charts available